sensor_id;sensor_type;location;lat;lon;timestamp;P1;durP1;ratioP1;P2;durP2;ratioP2
74245;SDS011;62601;51.044;13.788;2022-12-13T00:00:22;14.10;;;8.10;;
74245;SDS011;62601;51.044;13.788;2022-12-13T00:02:43;14.52;;;8.90;;
74245;SDS011;62601;51.044;13.788;2022-12-13T00:05:03;10.55;;;7.90;;
74245;SDS011;62601;51.044;13.788;2022-12-13T00:07:23;12.75;;;7.50;;
74245;SDS011;62601;51.044;13.788;2022-12-13T00:09:44;16.67;;;9.18;;
74245;SDS011;62601;51.044;13.788;2022-12-13T00:12:04;13.43;;;8.63;;
74245;SDS011;62601;51.044;13.788;2022-12-13T00:14:24;15.07;;;9.30;;
74245;SDS011;62601;51.044;13.788;2022-12-13T00:16:45;15.30;;;8.50;;
74245;SDS011;62601;51.044;13.788;2022-12-13T00:19:05;16.60;;;9.27;;
74245;SDS011;62601;51.044;13.788;2022-12-13T00:21:29;15.70;;;8.85;;
74245;SDS011;62601;51.044;13.788;2022-12-13T00:23:49;13.13;;;8.35;;
74245;SDS011;62601;51.044;13.788;2022-12-13T00:26:10;14.60;;;9.35;;
74245;SDS011;62601;51.044;13.788;2022-12-13T00:28:31;15.10;;;8.70;;
74245;SDS011;62601;51.044;13.788;2022-12-13T00:30:55;11.85;;;7.35;;
74245;SDS011;62601;51.044;13.788;2022-12-13T00:33:16;11.80;;;7.35;;
74245;SDS011;62601;51.044;13.788;2022-12-13T00:35:39;13.40;;;7.93;;
74245;SDS011;62601;51.044;13.788;2022-12-13T00:38:00;13.30;;;8.38;;
74245;SDS011;62601;51.044;13.788;2022-12-13T00:40:20;11.20;;;7.55;;
74245;SDS011;62601;51.044;13.788;2022-12-13T00:42:40;13.70;;;8.80;;
74245;SDS011;62601;51.044;13.788;2022-12-13T00:45:00;14.52;;;8.32;;
74245;SDS011;62601;51.044;13.788;2022-12-13T00:47:20;14.52;;;7.57;;
74245;SDS011;62601;51.044;13.788;2022-12-13T00:49:40;11.98;;;7.90;;
74245;SDS011;62601;51.044;13.788;2022-12-13T00:52:00;13.80;;;8.02;;
74245;SDS011;62601;51.044;13.788;2022-12-13T00:54:21;17.00;;;9.20;;
74245;SDS011;62601;51.044;13.788;2022-12-13T00:56:42;12.40;;;8.40;;
74245;SDS011;62601;51.044;13.788;2022-12-13T00:59:02;14.18;;;8.25;;
74245;SDS011;62601;51.044;13.788;2022-12-13T01:01:25;15.70;;;8.30;;
74245;SDS011;62601;51.044;13.788;2022-12-13T01:03:45;14.15;;;8.35;;
74245;SDS011;62601;51.044;13.788;2022-12-13T01:06:14;14.00;;;8.45;;
74245;SDS011;62601;51.044;13.788;2022-12-13T01:08:36;14.98;;;9.00;;
74245;SDS011;62601;51.044;13.788;2022-12-13T01:10:56;14.80;;;9.23;;
74245;SDS011;62601;51.044;13.788;2022-12-13T01:13:16;13.63;;;8.20;;
74245;SDS011;62601;51.044;13.788;2022-12-13T01:15:39;11.88;;;8.18;;
74245;SDS011;62601;51.044;13.788;2022-12-13T01:17:59;12.80;;;8.50;;
74245;SDS011;62601;51.044;13.788;2022-12-13T01:20:19;12.43;;;8.20;;
74245;SDS011;62601;51.044;13.788;2022-12-13T01:22:41;13.80;;;8.38;;
74245;SDS011;62601;51.044;13.788;2022-12-13T01:25:02;11.70;;;7.78;;
74245;SDS011;62601;51.044;13.788;2022-12-13T01:27:24;12.50;;;7.28;;
74245;SDS011;62601;51.044;13.788;2022-12-13T01:29:45;11.48;;;8.05;;
74245;SDS011;62601;51.044;13.788;2022-12-13T01:32:05;13.13;;;7.90;;
74245;SDS011;62601;51.044;13.788;2022-12-13T01:34:27;14.35;;;8.45;;
74245;SDS011;62601;51.044;13.788;2022-12-13T01:36:51;12.45;;;7.60;;
74245;SDS011;62601;51.044;13.788;2022-12-13T01:39:13;15.10;;;8.75;;
74245;SDS011;62601;51.044;13.788;2022-12-13T01:41:34;13.57;;;8.73;;
74245;SDS011;62601;51.044;13.788;2022-12-13T01:44:00;13.02;;;7.75;;
74245;SDS011;62601;51.044;13.788;2022-12-13T01:46:21;11.88;;;8.05;;
74245;SDS011;62601;51.044;13.788;2022-12-13T01:51:24;11.80;;;7.70;;
74245;SDS011;62601;51.044;13.788;2022-12-13T01:53:46;12.00;;;7.90;;
74245;SDS011;62601;51.044;13.788;2022-12-13T01:56:09;13.35;;;8.93;;
74245;SDS011;62601;51.044;13.788;2022-12-13T01:58:32;14.88;;;7.53;;
74245;SDS011;62601;51.044;13.788;2022-12-13T02:00:53;11.45;;;7.63;;
74245;SDS011;62601;51.044;13.788;2022-12-13T02:03:13;14.60;;;9.68;;
74245;SDS011;62601;51.044;13.788;2022-12-13T02:05:38;13.30;;;8.85;;
74245;SDS011;62601;51.044;13.788;2022-12-13T02:08:00;12.98;;;8.35;;
74245;SDS011;62601;51.044;13.788;2022-12-13T02:10:20;12.50;;;7.70;;
74245;SDS011;62601;51.044;13.788;2022-12-13T02:12:41;13.23;;;8.15;;
74245;SDS011;62601;51.044;13.788;2022-12-13T02:15:07;12.07;;;7.22;;
74245;SDS011;62601;51.044;13.788;2022-12-13T02:38:10;10.68;;;7.45;;
74245;SDS011;62601;51.044;13.788;2022-12-13T02:40:37;12.52;;;8.30;;
74245;SDS011;62601;51.044;13.788;2022-12-13T02:43:01;12.70;;;7.88;;
74245;SDS011;62601;51.044;13.788;2022-12-13T02:45:25;11.23;;;7.45;;
74245;SDS011;62601;51.044;13.788;2022-12-13T02:47:48;12.15;;;8.05;;
74245;SDS011;62601;51.044;13.788;2022-12-13T02:50:09;11.75;;;7.88;;
74245;SDS011;62601;51.044;13.788;2022-12-13T02:52:31;13.23;;;7.82;;
74245;SDS011;62601;51.044;13.788;2022-12-13T02:54:52;11.18;;;7.75;;
74245;SDS011;62601;51.044;13.788;2022-12-13T02:57:32;10.43;;;7.50;;
74245;SDS011;62601;51.044;13.788;2022-12-13T02:59:54;11.52;;;8.02;;
74245;SDS011;62601;51.044;13.788;2022-12-13T03:07:21;14.65;;;7.90;;
74245;SDS011;62601;51.044;13.788;2022-12-13T03:12:14;18.88;;;9.02;;
74245;SDS011;62601;51.044;13.788;2022-12-13T03:14:38;16.33;;;8.70;;
74245;SDS011;62601;51.044;13.788;2022-12-13T03:17:01;14.10;;;9.10;;
74245;SDS011;62601;51.044;13.788;2022-12-13T03:19:21;14.55;;;8.52;;
74245;SDS011;62601;51.044;13.788;2022-12-13T03:21:43;14.43;;;8.63;;
74245;SDS011;62601;51.044;13.788;2022-12-13T03:24:03;15.75;;;8.15;;
74245;SDS011;62601;51.044;13.788;2022-12-13T03:26:25;12.65;;;7.40;;
74245;SDS011;62601;51.044;13.788;2022-12-13T03:28:47;16.58;;;8.75;;
74245;SDS011;62601;51.044;13.788;2022-12-13T03:31:08;16.05;;;9.63;;
74245;SDS011;62601;51.044;13.788;2022-12-13T03:33:28;16.08;;;9.02;;
74245;SDS011;62601;51.044;13.788;2022-12-13T03:35:48;17.20;;;10.45;;
74245;SDS011;62601;51.044;13.788;2022-12-13T03:38:10;16.80;;;9.65;;
74245;SDS011;62601;51.044;13.788;2022-12-13T03:40:30;15.43;;;9.25;;
74245;SDS011;62601;51.044;13.788;2022-12-13T03:42:51;13.75;;;9.15;;
74245;SDS011;62601;51.044;13.788;2022-12-13T03:45:11;13.18;;;8.10;;
74245;SDS011;62601;51.044;13.788;2022-12-13T03:47:33;14.13;;;8.73;;
74245;SDS011;62601;51.044;13.788;2022-12-13T03:49:54;14.68;;;8.82;;
74245;SDS011;62601;51.044;13.788;2022-12-13T03:52:14;13.30;;;8.73;;
74245;SDS011;62601;51.044;13.788;2022-12-13T03:54:36;13.60;;;8.50;;
74245;SDS011;62601;51.044;13.788;2022-12-13T03:56:56;12.98;;;8.77;;
74245;SDS011;62601;51.044;13.788;2022-12-13T03:59:16;14.55;;;9.05;;
74245;SDS011;62601;51.044;13.788;2022-12-13T04:01:36;18.70;;;10.00;;
74245;SDS011;62601;51.044;13.788;2022-12-13T04:03:56;15.65;;;9.57;;
74245;SDS011;62601;51.044;13.788;2022-12-13T04:06:16;13.32;;;9.77;;
74245;SDS011;62601;51.044;13.788;2022-12-13T04:08:38;16.35;;;10.13;;
74245;SDS011;62601;51.044;13.788;2022-12-13T04:10:59;13.82;;;8.85;;
74245;SDS011;62601;51.044;13.788;2022-12-13T04:13:19;16.20;;;9.95;;
74245;SDS011;62601;51.044;13.788;2022-12-13T04:15:40;15.18;;;8.60;;
74245;SDS011;62601;51.044;13.788;2022-12-13T04:18:01;14.50;;;8.85;;
74245;SDS011;62601;51.044;13.788;2022-12-13T04:20:22;16.45;;;10.10;;
74245;SDS011;62601;51.044;13.788;2022-12-13T04:22:43;15.45;;;9.55;;
74245;SDS011;62601;51.044;13.788;2022-12-13T04:25:03;17.10;;;10.00;;
74245;SDS011;62601;51.044;13.788;2022-12-13T04:27:25;14.35;;;9.38;;
74245;SDS011;62601;51.044;13.788;2022-12-13T04:29:45;15.90;;;9.82;;
74245;SDS011;62601;51.044;13.788;2022-12-13T04:32:06;14.70;;;9.60;;
74245;SDS011;62601;51.044;13.788;2022-12-13T04:34:26;16.75;;;10.15;;
74245;SDS011;62601;51.044;13.788;2022-12-13T04:36:48;14.23;;;9.55;;
74245;SDS011;62601;51.044;13.788;2022-12-13T04:39:08;14.73;;;8.93;;
74245;SDS011;62601;51.044;13.788;2022-12-13T04:41:33;15.35;;;10.35;;
74245;SDS011;62601;51.044;13.788;2022-12-13T04:43:55;13.45;;;9.10;;
74245;SDS011;62601;51.044;13.788;2022-12-13T04:46:18;14.38;;;9.43;;
74245;SDS011;62601;51.044;13.788;2022-12-13T04:48:39;13.85;;;8.68;;
74245;SDS011;62601;51.044;13.788;2022-12-13T04:51:00;17.30;;;9.98;;
74245;SDS011;62601;51.044;13.788;2022-12-13T04:53:22;15.90;;;10.05;;
74245;SDS011;62601;51.044;13.788;2022-12-13T04:55:43;14.38;;;9.48;;
74245;SDS011;62601;51.044;13.788;2022-12-13T04:58:04;14.70;;;10.00;;
74245;SDS011;62601;51.044;13.788;2022-12-13T05:00:26;20.15;;;9.85;;
74245;SDS011;62601;51.044;13.788;2022-12-13T05:02:46;15.93;;;9.73;;
74245;SDS011;62601;51.044;13.788;2022-12-13T05:05:10;17.65;;;9.30;;
74245;SDS011;62601;51.044;13.788;2022-12-13T05:07:32;14.25;;;9.57;;
74245;SDS011;62601;51.044;13.788;2022-12-13T05:09:52;18.83;;;10.43;;
74245;SDS011;62601;51.044;13.788;2022-12-13T05:12:13;21.98;;;10.23;;
74245;SDS011;62601;51.044;13.788;2022-12-13T05:14:34;12.95;;;8.68;;
74245;SDS011;62601;51.044;13.788;2022-12-13T05:16:54;18.17;;;10.38;;
74245;SDS011;62601;51.044;13.788;2022-12-13T05:19:14;19.35;;;10.32;;
74245;SDS011;62601;51.044;13.788;2022-12-13T05:21:36;17.08;;;10.48;;
74245;SDS011;62601;51.044;13.788;2022-12-13T05:23:56;15.98;;;9.73;;
74245;SDS011;62601;51.044;13.788;2022-12-13T05:26:16;14.85;;;9.15;;
74245;SDS011;62601;51.044;13.788;2022-12-13T05:28:37;14.82;;;9.88;;
74245;SDS011;62601;51.044;13.788;2022-12-13T05:31:09;16.58;;;9.38;;
74245;SDS011;62601;51.044;13.788;2022-12-13T05:33:30;15.25;;;9.52;;
74245;SDS011;62601;51.044;13.788;2022-12-13T05:35:51;17.55;;;9.68;;
74245;SDS011;62601;51.044;13.788;2022-12-13T05:38:13;14.70;;;8.88;;
74245;SDS011;62601;51.044;13.788;2022-12-13T05:40:34;17.30;;;9.07;;
74245;SDS011;62601;51.044;13.788;2022-12-13T05:42:56;15.38;;;9.68;;
74245;SDS011;62601;51.044;13.788;2022-12-13T05:45:17;14.27;;;9.18;;
74245;SDS011;62601;51.044;13.788;2022-12-13T05:47:39;16.17;;;9.50;;
74245;SDS011;62601;51.044;13.788;2022-12-13T05:50:00;14.25;;;8.60;;
74245;SDS011;62601;51.044;13.788;2022-12-13T05:52:22;14.77;;;9.73;;
74245;SDS011;62601;51.044;13.788;2022-12-13T05:54:43;16.95;;;10.85;;
74245;SDS011;62601;51.044;13.788;2022-12-13T05:57:04;17.13;;;10.63;;
74245;SDS011;62601;51.044;13.788;2022-12-13T05:59:25;18.42;;;10.85;;
74245;SDS011;62601;51.044;13.788;2022-12-13T06:01:46;16.80;;;10.55;;
74245;SDS011;62601;51.044;13.788;2022-12-13T06:04:08;18.75;;;9.75;;
74245;SDS011;62601;51.044;13.788;2022-12-13T06:06:29;16.40;;;9.88;;
74245;SDS011;62601;51.044;13.788;2022-12-13T06:08:49;18.38;;;10.40;;
74245;SDS011;62601;51.044;13.788;2022-12-13T06:11:10;19.25;;;10.80;;
74245;SDS011;62601;51.044;13.788;2022-12-13T06:13:30;19.33;;;10.35;;
74245;SDS011;62601;51.044;13.788;2022-12-13T06:15:51;15.50;;;10.40;;
74245;SDS011;62601;51.044;13.788;2022-12-13T06:18:13;18.52;;;10.25;;
74245;SDS011;62601;51.044;13.788;2022-12-13T06:20:33;21.33;;;10.80;;
74245;SDS011;62601;51.044;13.788;2022-12-13T06:22:54;17.58;;;9.52;;
74245;SDS011;62601;51.044;13.788;2022-12-13T06:25:16;14.98;;;8.73;;
74245;SDS011;62601;51.044;13.788;2022-12-13T06:27:38;16.35;;;10.05;;
74245;SDS011;62601;51.044;13.788;2022-12-13T06:29:59;20.88;;;11.18;;
74245;SDS011;62601;51.044;13.788;2022-12-13T06:32:20;21.35;;;10.90;;
74245;SDS011;62601;51.044;13.788;2022-12-13T06:34:42;15.80;;;9.95;;
74245;SDS011;62601;51.044;13.788;2022-12-13T06:37:04;21.23;;;11.07;;
74245;SDS011;62601;51.044;13.788;2022-12-13T06:39:25;20.17;;;11.15;;
74245;SDS011;62601;51.044;13.788;2022-12-13T06:41:45;19.77;;;10.82;;
74245;SDS011;62601;51.044;13.788;2022-12-13T06:44:05;17.35;;;10.43;;
74245;SDS011;62601;51.044;13.788;2022-12-13T06:46:25;21.58;;;11.27;;
74245;SDS011;62601;51.044;13.788;2022-12-13T06:48:45;20.40;;;10.25;;
74245;SDS011;62601;51.044;13.788;2022-12-13T06:51:06;20.35;;;11.63;;
74245;SDS011;62601;51.044;13.788;2022-12-13T06:53:26;19.65;;;11.73;;
74245;SDS011;62601;51.044;13.788;2022-12-13T06:55:46;21.08;;;10.55;;
74245;SDS011;62601;51.044;13.788;2022-12-13T06:58:07;21.00;;;11.13;;
74245;SDS011;62601;51.044;13.788;2022-12-13T07:00:27;16.67;;;10.55;;
74245;SDS011;62601;51.044;13.788;2022-12-13T07:02:50;20.30;;;10.23;;
74245;SDS011;62601;51.044;13.788;2022-12-13T07:05:10;19.95;;;11.13;;
74245;SDS011;62601;51.044;13.788;2022-12-13T07:07:30;20.92;;;12.02;;
74245;SDS011;62601;51.044;13.788;2022-12-13T07:09:51;16.13;;;10.50;;
74245;SDS011;62601;51.044;13.788;2022-12-13T07:12:11;17.08;;;10.88;;
74245;SDS011;62601;51.044;13.788;2022-12-13T07:14:31;20.55;;;10.98;;
74245;SDS011;62601;51.044;13.788;2022-12-13T07:16:51;19.92;;;10.55;;
74245;SDS011;62601;51.044;13.788;2022-12-13T07:19:11;18.52;;;10.45;;
74245;SDS011;62601;51.044;13.788;2022-12-13T07:21:31;23.85;;;10.73;;
74245;SDS011;62601;51.044;13.788;2022-12-13T07:23:52;17.38;;;10.80;;
74245;SDS011;62601;51.044;13.788;2022-12-13T07:26:12;16.10;;;10.02;;
74245;SDS011;62601;51.044;13.788;2022-12-13T07:28:32;19.58;;;9.93;;
74245;SDS011;62601;51.044;13.788;2022-12-13T07:30:52;18.42;;;10.60;;
74245;SDS011;62601;51.044;13.788;2022-12-13T07:33:13;18.95;;;11.00;;
74245;SDS011;62601;51.044;13.788;2022-12-13T07:35:33;18.13;;;11.10;;
74245;SDS011;62601;51.044;13.788;2022-12-13T07:37:53;17.73;;;9.65;;
74245;SDS011;62601;51.044;13.788;2022-12-13T07:40:13;17.90;;;9.98;;
74245;SDS011;62601;51.044;13.788;2022-12-13T07:42:33;24.83;;;12.82;;
74245;SDS011;62601;51.044;13.788;2022-12-13T07:44:54;20.35;;;11.15;;
74245;SDS011;62601;51.044;13.788;2022-12-13T07:47:14;19.50;;;10.68;;
74245;SDS011;62601;51.044;13.788;2022-12-13T07:49:34;16.98;;;10.63;;
74245;SDS011;62601;51.044;13.788;2022-12-13T07:51:54;20.08;;;11.00;;
74245;SDS011;62601;51.044;13.788;2022-12-13T07:54:14;17.90;;;9.07;;
74245;SDS011;62601;51.044;13.788;2022-12-13T07:56:34;18.10;;;10.00;;
74245;SDS011;62601;51.044;13.788;2022-12-13T07:58:55;17.10;;;10.10;;
74245;SDS011;62601;51.044;13.788;2022-12-13T08:01:15;12.75;;;8.68;;
74245;SDS011;62601;51.044;13.788;2022-12-13T08:03:35;20.45;;;10.02;;
74245;SDS011;62601;51.044;13.788;2022-12-13T08:06:02;14.25;;;9.00;;
74245;SDS011;62601;51.044;13.788;2022-12-13T08:08:23;17.38;;;9.75;;
74245;SDS011;62601;51.044;13.788;2022-12-13T08:10:43;18.30;;;10.10;;
74245;SDS011;62601;51.044;13.788;2022-12-13T08:13:03;16.63;;;10.35;;
74245;SDS011;62601;51.044;13.788;2022-12-13T08:15:23;17.10;;;9.60;;
74245;SDS011;62601;51.044;13.788;2022-12-13T08:17:44;19.30;;;9.82;;
74245;SDS011;62601;51.044;13.788;2022-12-13T08:20:04;16.95;;;9.18;;
74245;SDS011;62601;51.044;13.788;2022-12-13T08:22:24;18.48;;;9.55;;
74245;SDS011;62601;51.044;13.788;2022-12-13T08:24:44;16.45;;;8.70;;
74245;SDS011;62601;51.044;13.788;2022-12-13T08:27:04;14.85;;;9.20;;
74245;SDS011;62601;51.044;13.788;2022-12-13T08:29:25;14.85;;;8.60;;
74245;SDS011;62601;51.044;13.788;2022-12-13T08:31:45;14.85;;;8.50;;
74245;SDS011;62601;51.044;13.788;2022-12-13T08:34:05;17.52;;;10.40;;
74245;SDS011;62601;51.044;13.788;2022-12-13T08:36:25;13.57;;;9.02;;
74245;SDS011;62601;51.044;13.788;2022-12-13T08:38:45;17.60;;;10.23;;
74245;SDS011;62601;51.044;13.788;2022-12-13T08:41:06;16.95;;;10.07;;
74245;SDS011;62601;51.044;13.788;2022-12-13T08:43:26;18.63;;;11.23;;
74245;SDS011;62601;51.044;13.788;2022-12-13T08:45:48;20.30;;;10.13;;
74245;SDS011;62601;51.044;13.788;2022-12-13T08:48:08;19.02;;;10.70;;
74245;SDS011;62601;51.044;13.788;2022-12-13T08:50:29;19.52;;;9.75;;
74245;SDS011;62601;51.044;13.788;2022-12-13T08:52:50;19.58;;;9.90;;
74245;SDS011;62601;51.044;13.788;2022-12-13T08:55:10;17.55;;;10.20;;
74245;SDS011;62601;51.044;13.788;2022-12-13T08:57:31;17.40;;;9.73;;
74245;SDS011;62601;51.044;13.788;2022-12-13T08:59:54;17.05;;;10.55;;
74245;SDS011;62601;51.044;13.788;2022-12-13T09:02:14;17.13;;;9.43;;
74245;SDS011;62601;51.044;13.788;2022-12-13T09:04:34;16.08;;;10.30;;
74245;SDS011;62601;51.044;13.788;2022-12-13T09:06:55;22.80;;;9.90;;
74245;SDS011;62601;51.044;13.788;2022-12-13T09:09:15;17.75;;;10.60;;
74245;SDS011;62601;51.044;13.788;2022-12-13T09:11:35;20.15;;;9.73;;
74245;SDS011;62601;51.044;13.788;2022-12-13T09:13:55;17.30;;;10.30;;
74245;SDS011;62601;51.044;13.788;2022-12-13T09:16:17;21.83;;;11.20;;
74245;SDS011;62601;51.044;13.788;2022-12-13T09:18:37;16.85;;;10.48;;
74245;SDS011;62601;51.044;13.788;2022-12-13T09:20:57;14.55;;;8.57;;
74245;SDS011;62601;51.044;13.788;2022-12-13T09:23:17;15.20;;;8.77;;
74245;SDS011;62601;51.044;13.788;2022-12-13T09:25:38;17.75;;;9.43;;
74245;SDS011;62601;51.044;13.788;2022-12-13T09:27:58;22.02;;;8.82;;
74245;SDS011;62601;51.044;13.788;2022-12-13T09:30:18;16.77;;;9.80;;
74245;SDS011;62601;51.044;13.788;2022-12-13T09:32:39;16.80;;;10.00;;
74245;SDS011;62601;51.044;13.788;2022-12-13T09:34:59;16.98;;;10.15;;
74245;SDS011;62601;51.044;13.788;2022-12-13T09:37:19;14.23;;;8.10;;
74245;SDS011;62601;51.044;13.788;2022-12-13T09:39:39;16.38;;;8.70;;
74245;SDS011;62601;51.044;13.788;2022-12-13T09:41:59;18.17;;;8.48;;
74245;SDS011;62601;51.044;13.788;2022-12-13T09:44:29;17.23;;;8.95;;
74245;SDS011;62601;51.044;13.788;2022-12-13T09:46:51;15.75;;;8.98;;
74245;SDS011;62601;51.044;13.788;2022-12-13T09:49:16;14.65;;;9.13;;
74245;SDS011;62601;51.044;13.788;2022-12-13T09:51:37;14.18;;;8.73;;
74245;SDS011;62601;51.044;13.788;2022-12-13T09:53:57;17.17;;;8.63;;
74245;SDS011;62601;51.044;13.788;2022-12-13T09:56:18;15.93;;;8.52;;
74245;SDS011;62601;51.044;13.788;2022-12-13T09:58:39;16.63;;;9.07;;
74245;SDS011;62601;51.044;13.788;2022-12-13T10:00:59;14.88;;;8.18;;
74245;SDS011;62601;51.044;13.788;2022-12-13T10:03:19;17.02;;;8.80;;
74245;SDS011;62601;51.044;13.788;2022-12-13T10:05:43;13.52;;;8.07;;
74245;SDS011;62601;51.044;13.788;2022-12-13T10:08:03;13.77;;;8.65;;
74245;SDS011;62601;51.044;13.788;2022-12-13T10:10:25;14.38;;;7.75;;
74245;SDS011;62601;51.044;13.788;2022-12-13T10:12:46;14.07;;;8.35;;
74245;SDS011;62601;51.044;13.788;2022-12-13T10:15:07;13.20;;;8.30;;
74245;SDS011;62601;51.044;13.788;2022-12-13T10:17:33;14.75;;;7.90;;
74245;SDS011;62601;51.044;13.788;2022-12-13T10:19:55;13.23;;;8.40;;
74245;SDS011;62601;51.044;13.788;2022-12-13T10:22:15;12.40;;;7.60;;
74245;SDS011;62601;51.044;13.788;2022-12-13T10:24:50;15.23;;;7.95;;
74245;SDS011;62601;51.044;13.788;2022-12-13T10:27:11;17.08;;;8.90;;
74245;SDS011;62601;51.044;13.788;2022-12-13T10:29:32;12.80;;;7.57;;
74245;SDS011;62601;51.044;13.788;2022-12-13T10:31:52;16.27;;;8.75;;
74245;SDS011;62601;51.044;13.788;2022-12-13T10:39:41;12.13;;;7.70;;
74245;SDS011;62601;51.044;13.788;2022-12-13T10:42:02;14.50;;;7.63;;
74245;SDS011;62601;51.044;13.788;2022-12-13T10:44:23;12.10;;;7.43;;
74245;SDS011;62601;51.044;13.788;2022-12-13T10:46:47;11.02;;;6.95;;
74245;SDS011;62601;51.044;13.788;2022-12-13T10:49:15;13.63;;;7.80;;
74245;SDS011;62601;51.044;13.788;2022-12-13T10:51:36;12.48;;;7.57;;
74245;SDS011;62601;51.044;13.788;2022-12-13T10:53:57;13.45;;;7.95;;
74245;SDS011;62601;51.044;13.788;2022-12-13T10:56:19;12.50;;;7.63;;
74245;SDS011;62601;51.044;13.788;2022-12-13T10:58:41;11.05;;;6.95;;
74245;SDS011;62601;51.044;13.788;2022-12-13T11:01:09;10.52;;;7.30;;
74245;SDS011;62601;51.044;13.788;2022-12-13T11:03:31;12.40;;;8.18;;
74245;SDS011;62601;51.044;13.788;2022-12-13T11:06:00;13.25;;;8.85;;
74245;SDS011;62601;51.044;13.788;2022-12-13T11:08:21;12.40;;;8.57;;
74245;SDS011;62601;51.044;13.788;2022-12-13T11:10:42;12.18;;;7.95;;
74245;SDS011;62601;51.044;13.788;2022-12-13T11:13:03;13.30;;;7.60;;
74245;SDS011;62601;51.044;13.788;2022-12-13T11:15:24;14.32;;;8.30;;
74245;SDS011;62601;51.044;13.788;2022-12-13T11:18:06;14.27;;;9.13;;
74245;SDS011;62601;51.044;13.788;2022-12-13T11:20:37;12.70;;;8.07;;
74245;SDS011;62601;51.044;13.788;2022-12-13T11:23:13;15.27;;;8.82;;
74245;SDS011;62601;51.044;13.788;2022-12-13T11:25:41;15.25;;;8.63;;
74245;SDS011;62601;51.044;13.788;2022-12-13T11:28:06;14.05;;;8.45;;
74245;SDS011;62601;51.044;13.788;2022-12-13T11:33:13;14.10;;;8.40;;
74245;SDS011;62601;51.044;13.788;2022-12-13T11:41:09;14.50;;;7.80;;
74245;SDS011;62601;51.044;13.788;2022-12-13T11:43:42;13.57;;;8.07;;
74245;SDS011;62601;51.044;13.788;2022-12-13T11:46:05;11.70;;;7.80;;
74245;SDS011;62601;51.044;13.788;2022-12-13T11:48:41;11.88;;;8.35;;
74245;SDS011;62601;51.044;13.788;2022-12-13T11:51:03;11.05;;;6.95;;
74245;SDS011;62601;51.044;13.788;2022-12-13T11:53:34;11.48;;;8.40;;
74245;SDS011;62601;51.044;13.788;2022-12-13T11:58:26;12.07;;;7.47;;
74245;SDS011;62601;51.044;13.788;2022-12-13T12:00:47;12.02;;;7.20;;
74245;SDS011;62601;51.044;13.788;2022-12-13T12:03:20;11.75;;;7.95;;
74245;SDS011;62601;51.044;13.788;2022-12-13T12:08:33;11.82;;;7.53;;
74245;SDS011;62601;51.044;13.788;2022-12-13T12:10:59;13.18;;;8.35;;
74245;SDS011;62601;51.044;13.788;2022-12-13T12:13:22;12.38;;;7.75;;
74245;SDS011;62601;51.044;13.788;2022-12-13T12:18:22;14.65;;;7.85;;
74245;SDS011;62601;51.044;13.788;2022-12-13T12:25:46;12.77;;;7.88;;
74245;SDS011;62601;51.044;13.788;2022-12-13T12:28:27;14.50;;;7.43;;
74245;SDS011;62601;51.044;13.788;2022-12-13T12:36:16;12.52;;;6.50;;
74245;SDS011;62601;51.044;13.788;2022-12-13T12:38:45;11.27;;;7.55;;
74245;SDS011;62601;51.044;13.788;2022-12-13T12:41:23;13.93;;;8.15;;
74245;SDS011;62601;51.044;13.788;2022-12-13T12:43:50;12.25;;;7.72;;
74245;SDS011;62601;51.044;13.788;2022-12-13T12:51:06;13.85;;;7.40;;
74245;SDS011;62601;51.044;13.788;2022-12-13T12:53:34;10.75;;;6.10;;
74245;SDS011;62601;51.044;13.788;2022-12-13T12:56:01;9.30;;;6.03;;
74245;SDS011;62601;51.044;13.788;2022-12-13T12:58:33;10.10;;;6.07;;
74245;SDS011;62601;51.044;13.788;2022-12-13T13:03:34;8.25;;;5.65;;
74245;SDS011;62601;51.044;13.788;2022-12-13T13:06:03;9.82;;;6.10;;
74245;SDS011;62601;51.044;13.788;2022-12-13T13:08:30;11.73;;;6.75;;
74245;SDS011;62601;51.044;13.788;2022-12-13T13:10:54;13.48;;;7.47;;
74245;SDS011;62601;51.044;13.788;2022-12-13T13:13:31;12.80;;;7.03;;
74245;SDS011;62601;51.044;13.788;2022-12-13T13:15:51;11.55;;;7.70;;
74245;SDS011;62601;51.044;13.788;2022-12-13T13:21:51;9.38;;;6.68;;
74245;SDS011;62601;51.044;13.788;2022-12-13T13:23:40;6.65;;;5.00;;
74245;SDS011;62601;51.044;13.788;2022-12-13T13:26:00;8.05;;;5.35;;
74245;SDS011;62601;51.044;13.788;2022-12-13T13:28:20;9.57;;;6.70;;
74245;SDS011;62601;51.044;13.788;2022-12-13T13:35:58;13.77;;;7.38;;
74245;SDS011;62601;51.044;13.788;2022-12-13T13:38:25;9.93;;;6.13;;
74245;SDS011;62601;51.044;13.788;2022-12-13T13:40:46;6.80;;;5.03;;
74245;SDS011;62601;51.044;13.788;2022-12-13T13:45:29;7.90;;;5.47;;
74245;SDS011;62601;51.044;13.788;2022-12-13T13:50:49;7.20;;;5.00;;
74245;SDS011;62601;51.044;13.788;2022-12-13T13:55:43;8.80;;;4.65;;
74245;SDS011;62601;51.044;13.788;2022-12-13T13:58:21;6.45;;;4.60;;
74245;SDS011;62601;51.044;13.788;2022-12-13T14:00:54;6.30;;;4.72;;
74245;SDS011;62601;51.044;13.788;2022-12-13T14:06:05;8.80;;;5.18;;
74245;SDS011;62601;51.044;13.788;2022-12-13T14:08:40;6.35;;;4.32;;
74245;SDS011;62601;51.044;13.788;2022-12-13T14:18:31;10.65;;;6.13;;
74245;SDS011;62601;51.044;13.788;2022-12-13T14:23:34;8.15;;;6.10;;
74245;SDS011;62601;51.044;13.788;2022-12-13T14:28:45;10.73;;;7.00;;
74245;SDS011;62601;51.044;13.788;2022-12-13T14:31:12;10.80;;;6.05;;
74245;SDS011;62601;51.044;13.788;2022-12-13T14:33:32;12.60;;;5.95;;
74245;SDS011;62601;51.044;13.788;2022-12-13T14:35:53;9.95;;;6.45;;
74245;SDS011;62601;51.044;13.788;2022-12-13T14:38:27;8.95;;;6.40;;
74245;SDS011;62601;51.044;13.788;2022-12-13T14:40:55;10.10;;;6.63;;
74245;SDS011;62601;51.044;13.788;2022-12-13T14:43:26;16.42;;;8.93;;
74245;SDS011;62601;51.044;13.788;2022-12-13T14:45:47;9.98;;;5.93;;
74245;SDS011;62601;51.044;13.788;2022-12-13T14:48:13;9.25;;;5.88;;
74245;SDS011;62601;51.044;13.788;2022-12-13T14:50:34;10.77;;;7.03;;
74245;SDS011;62601;51.044;13.788;2022-12-13T14:52:55;8.63;;;6.10;;
74245;SDS011;62601;51.044;13.788;2022-12-13T14:55:22;14.20;;;7.20;;
74245;SDS011;62601;51.044;13.788;2022-12-13T14:57:42;15.23;;;6.70;;
74245;SDS011;62601;51.044;13.788;2022-12-13T15:00:19;11.52;;;6.88;;
74245;SDS011;62601;51.044;13.788;2022-12-13T15:02:48;10.50;;;7.13;;
74245;SDS011;62601;51.044;13.788;2022-12-13T15:05:08;10.43;;;6.82;;
74245;SDS011;62601;51.044;13.788;2022-12-13T15:07:41;9.57;;;6.53;;
74245;SDS011;62601;51.044;13.788;2022-12-13T15:12:25;11.85;;;7.28;;
74245;SDS011;62601;51.044;13.788;2022-12-13T15:14:47;14.45;;;8.07;;
74245;SDS011;62601;51.044;13.788;2022-12-13T15:17:20;12.20;;;8.30;;
74245;SDS011;62601;51.044;13.788;2022-12-13T15:19:43;12.70;;;7.72;;
74245;SDS011;62601;51.044;13.788;2022-12-13T15:22:05;14.32;;;8.57;;
74245;SDS011;62601;51.044;13.788;2022-12-13T15:24:26;13.70;;;7.95;;
74245;SDS011;62601;51.044;13.788;2022-12-13T15:26:47;13.50;;;8.35;;
74245;SDS011;62601;51.044;13.788;2022-12-13T15:29:07;15.57;;;8.40;;
74245;SDS011;62601;51.044;13.788;2022-12-13T15:31:32;13.32;;;8.30;;
74245;SDS011;62601;51.044;13.788;2022-12-13T15:33:52;20.15;;;9.77;;